sensor_id;sensor_type;location;lat;lon;timestamp;pressure;altitude;pressure_sealevel;temperature;humidity
26865;BME280;40618;51.166;10.322;2023-01-31T00:01:40;97737.41;;;1.43;85.61
26865;BME280;40618;51.166;10.322;2023-01-31T00:04:08;97739.09;;;1.42;86.14
26865;BME280;40618;51.166;10.322;2023-01-31T00:06:41;97729.72;;;1.41;86.30
26865;BME280;40618;51.166;10.322;2023-01-31T00:09:10;97739.06;;;1.41;85.87
26865;BME280;40618;51.166;10.322;2023-01-31T00:11:36;97735.66;;;1.40;86.24
26865;BME280;40618;51.166;10.322;2023-01-31T00:14:04;97736.50;;;1.39;86.42
26865;BME280;40618;51.166;10.322;2023-01-31T00:16:30;97730.56;;;1.39;86.17
26865;BME280;40618;51.166;10.322;2023-01-31T00:18:56;97728.84;;;1.38;85.60
26865;BME280;40618;51.166;10.322;2023-01-31T00:21:27;97735.63;;;1.37;86.11
26865;BME280;40618;51.166;10.322;2023-01-31T00:23:55;97732.19;;;1.33;85.63
26865;BME280;40618;51.166;10.322;2023-01-31T00:26:24;97731.34;;;1.31;86.01
26865;BME280;40618;51.166;10.322;2023-01-31T00:28:53;97731.34;;;1.31;86.32
26865;BME280;40618;51.166;10.322;2023-01-31T00:31:21;97729.63;;;1.32;86.11
26865;BME280;40618;51.166;10.322;2023-01-31T00:33:49;97736.38;;;1.28;86.10
26865;BME280;40618;51.166;10.322;2023-01-31T00:36:19;97744.91;;;1.27;86.08
26865;BME280;40618;51.166;10.322;2023-01-31T00:38:48;97742.34;;;1.27;85.42
26865;BME280;40618;51.166;10.322;2023-01-31T00:41:21;97741.47;;;1.28;85.40
26865;BME280;40618;51.166;10.322;2023-01-31T00:43:48;97742.34;;;1.29;85.48
26865;BME280;40618;51.166;10.322;2023-01-31T00:46:15;97750.03;;;1.30;85.87
26865;BME280;40618;51.166;10.322;2023-01-31T00:48:41;97758.53;;;1.32;85.32
26865;BME280;40618;51.166;10.322;2023-01-31T00:51:07;97763.69;;;1.34;85.40
26865;BME280;40618;51.166;10.322;2023-01-31T00:53:33;97769.63;;;1.34;85.59
26865;BME280;40618;51.166;10.322;2023-01-31T00:56:14;97773.91;;;1.35;86.15
26865;BME280;40618;51.166;10.322;2023-01-31T00:58:42;97774.75;;;1.38;85.51
26865;BME280;40618;51.166;10.322;2023-01-31T01:01:10;97779.03;;;1.39;85.73
26865;BME280;40618;51.166;10.322;2023-01-31T01:03:40;97779.03;;;1.40;85.73
26865;BME280;40618;51.166;10.322;2023-01-31T01:06:07;97778.19;;;1.40;85.88
26865;BME280;40618;51.166;10.322;2023-01-31T01:08:34;97782.44;;;1.41;85.28
26865;BME280;40618;51.166;10.322;2023-01-31T01:11:18;97778.22;;;1.43;85.82
26865;BME280;40618;51.166;10.322;2023-01-31T01:13:47;97791.00;;;1.44;86.26
26865;BME280;40618;51.166;10.322;2023-01-31T01:16:16;97789.28;;;1.45;85.55
26865;BME280;40618;51.166;10.322;2023-01-31T01:18:44;97791.03;;;1.47;86.07
26865;BME280;40618;51.166;10.322;2023-01-31T01:21:17;97788.47;;;1.47;85.41
26865;BME280;40618;51.166;10.322;2023-01-31T01:23:45;97778.28;;;1.47;86.01
26865;BME280;40618;51.166;10.322;2023-01-31T01:26:27;97781.69;;;1.48;85.87
26865;BME280;40618;51.166;10.322;2023-01-31T01:28:56;97782.53;;;1.48;85.87
26865;BME280;40618;51.166;10.322;2023-01-31T01:31:23;97771.50;;;1.48;85.39
26865;BME280;40618;51.166;10.322;2023-01-31T01:33:57;97785.09;;;1.48;85.11
26865;BME280;40618;51.166;10.322;2023-01-31T01:36:28;97781.69;;;1.48;85.27
26865;BME280;40618;51.166;10.322;2023-01-31T01:38:57;97796.13;;;1.46;85.15
26865;BME280;40618;51.166;10.322;2023-01-31T01:41:23;97797.81;;;1.44;85.41
26865;BME280;40618;51.166;10.322;2023-01-31T01:43:55;97802.84;;;1.41;85.10
26865;BME280;40618;51.166;10.322;2023-01-31T01:46:41;97794.31;;;1.37;85.31
26865;BME280;40618;51.166;10.322;2023-01-31T01:51:45;97798.56;;;1.37;86.06
26865;BME280;40618;51.166;10.322;2023-01-31T01:54:25;97810.47;;;1.38;85.59
26865;BME280;40618;51.166;10.322;2023-01-31T01:56:59;97794.31;;;1.37;86.17
26865;BME280;40618;51.166;10.322;2023-01-31T01:59:33;97816.47;;;1.38;85.35
26865;BME280;40618;51.166;10.322;2023-01-31T02:02:06;97812.19;;;1.37;85.83
26865;BME280;40618;51.166;10.322;2023-01-31T02:04:36;97823.25;;;1.38;85.78
26865;BME280;40618;51.166;10.322;2023-01-31T02:07:03;97829.22;;;1.38;85.40
26865;BME280;40618;51.166;10.322;2023-01-31T02:09:38;97823.25;;;1.38;85.60
26865;BME280;40618;51.166;10.322;2023-01-31T02:12:11;97838.53;;;1.38;85.85
26865;BME280;40618;51.166;10.322;2023-01-31T02:14:37;97847.94;;;1.40;85.28
26865;BME280;40618;51.166;10.322;2023-01-31T02:17:03;97849.66;;;1.41;85.76
26865;BME280;40618;51.166;10.322;2023-01-31T02:19:38;97866.66;;;1.41;85.13
26865;BME280;40618;51.166;10.322;2023-01-31T02:22:20;97848.75;;;1.38;85.53
26865;BME280;40618;51.166;10.322;2023-01-31T02:30:38;97855.56;;;1.37;85.70
26865;BME280;40618;51.166;10.322;2023-01-31T02:36:41;97853.84;;;1.36;85.32
26865;BME280;40618;51.166;10.322;2023-01-31T02:44:53;97852.13;;;1.37;85.01
26865;BME280;40618;51.166;10.322;2023-01-31T02:49:57;97856.41;;;1.38;85.60
26865;BME280;40618;51.166;10.322;2023-01-31T02:53:21;97853.84;;;1.38;85.05
26865;BME280;40618;51.166;10.322;2023-01-31T02:55:44;97863.22;;;1.37;85.53
26865;BME280;40618;51.166;10.322;2023-01-31T03:01:40;97868.31;;;1.35;85.24
26865;BME280;40618;51.166;10.322;2023-01-31T03:04:11;97879.38;;;1.38;85.21
26865;BME280;40618;51.166;10.322;2023-01-31T03:06:55;97899.78;;;1.36;85.20
26865;BME280;40618;51.166;10.322;2023-01-31T03:09:36;97888.72;;;1.34;85.74
26865;BME280;40618;51.166;10.322;2023-01-31T03:15:47;97888.63;;;1.29;85.64
26865;BME280;40618;51.166;10.322;2023-01-31T03:22:26;97899.63;;;1.27;85.21
26865;BME280;40618;51.166;10.322;2023-01-31T03:24:32;97889.41;;;1.25;85.54
26865;BME280;40618;51.166;10.322;2023-01-31T03:27:00;97882.59;;;1.26;85.07
26865;BME280;40618;51.166;10.322;2023-01-31T03:29:32;97888.56;;;1.25;85.32
26865;BME280;40618;51.166;10.322;2023-01-31T03:32:05;97879.22;;;1.25;85.11
26865;BME280;40618;51.166;10.322;2023-01-31T03:34:36;97894.53;;;1.25;85.21
26865;BME280;40618;51.166;10.322;2023-01-31T03:37:19;97887.72;;;1.26;85.19
26865;BME280;40618;51.166;10.322;2023-01-31T03:40:19;97889.44;;;1.27;85.23
26865;BME280;40618;51.166;10.322;2023-01-31T03:45:46;97885.16;;;1.26;85.82
26865;BME280;40618;51.166;10.322;2023-01-31T03:48:16;97896.25;;;1.26;85.16
26865;BME280;40618;51.166;10.322;2023-01-31T03:50:50;97900.47;;;1.26;85.18
26865;BME280;40618;51.166;10.322;2023-01-31T03:53:25;97889.44;;;1.27;85.88
26865;BME280;40618;51.166;10.322;2023-01-31T03:58:34;97892.88;;;1.27;85.58
26865;BME280;40618;51.166;10.322;2023-01-31T04:01:06;97890.31;;;1.27;85.70
26865;BME280;40618;51.166;10.322;2023-01-31T04:03:58;97893.72;;;1.28;84.95
26865;BME280;40618;51.166;10.322;2023-01-31T04:06:28;97886.88;;;1.27;85.47
26865;BME280;40618;51.166;10.322;2023-01-31T04:08:54;97874.16;;;1.28;85.40
26865;BME280;40618;51.166;10.322;2023-01-31T04:11:25;97880.94;;;1.28;85.56
26865;BME280;40618;51.166;10.322;2023-01-31T04:13:52;97887.75;;;1.27;85.27
26865;BME280;40618;51.166;10.322;2023-01-31T04:16:18;97887.75;;;1.27;84.90
26865;BME280;40618;51.166;10.322;2023-01-31T04:18:43;97887.78;;;1.29;85.47
26865;BME280;40618;51.166;10.322;2023-01-31T04:21:09;97877.56;;;1.29;85.08
26865;BME280;40618;51.166;10.322;2023-01-31T04:23:35;97875.84;;;1.28;85.70
26865;BME280;40618;51.166;10.322;2023-01-31T04:26:01;97876.69;;;1.28;85.36
26865;BME280;40618;51.166;10.322;2023-01-31T04:28:26;97873.31;;;1.29;84.85
26865;BME280;40618;51.166;10.322;2023-01-31T04:30:53;97875.03;;;1.29;84.77
26865;BME280;40618;51.166;10.322;2023-01-31T04:33:20;97875.84;;;1.28;85.59
26865;BME280;40618;51.166;10.322;2023-01-31T04:35:46;97873.28;;;1.28;85.35
26865;BME280;40618;51.166;10.322;2023-01-31T04:38:11;97869.03;;;1.27;84.94
26865;BME280;40618;51.166;10.322;2023-01-31T04:40:37;97865.63;;;1.26;85.08
26865;BME280;40618;51.166;10.322;2023-01-31T04:43:03;97861.38;;;1.27;84.53
26865;BME280;40618;51.166;10.322;2023-01-31T04:45:28;97868.19;;;1.26;84.85
26865;BME280;40618;51.166;10.322;2023-01-31T04:47:54;97869.03;;;1.27;85.51
26865;BME280;40618;51.166;10.322;2023-01-31T04:50:20;97875.84;;;1.28;84.67
26865;BME280;40618;51.166;10.322;2023-01-31T04:52:48;97874.16;;;1.28;84.72
26865;BME280;40618;51.166;10.322;2023-01-31T04:55:15;97857.16;;;1.27;84.76
26865;BME280;40618;51.166;10.322;2023-01-31T04:57:40;97856.28;;;1.28;85.35
26865;BME280;40618;51.166;10.322;2023-01-31T05:00:07;97859.72;;;1.29;84.68
26865;BME280;40618;51.166;10.322;2023-01-31T05:02:33;97860.53;;;1.28;85.43
26865;BME280;40618;51.166;10.322;2023-01-31T05:04:58;97861.38;;;1.28;84.87
26865;BME280;40618;51.166;10.322;2023-01-31T05:07:24;97859.69;;;1.27;85.25
26865;BME280;40618;51.166;10.322;2023-01-31T05:09:50;97861.38;;;1.28;85.28
26865;BME280;40618;51.166;10.322;2023-01-31T05:12:15;97857.97;;;1.26;84.61
26865;BME280;40618;51.166;10.322;2023-01-31T05:14:41;97858.81;;;1.25;85.30
26865;BME280;40618;51.166;10.322;2023-01-31T05:17:07;97860.50;;;1.25;85.05
26865;BME280;40618;51.166;10.322;2023-01-31T05:19:32;97863.06;;;1.25;84.35
26865;BME280;40618;51.166;10.322;2023-01-31T05:21:58;97852.00;;;1.26;85.09
26865;BME280;40618;51.166;10.322;2023-01-31T05:24:26;97865.63;;;1.26;84.38
26865;BME280;40618;51.166;10.322;2023-01-31T05:26:54;97857.09;;;1.26;85.02
26865;BME280;40618;51.166;10.322;2023-01-31T05:29:27;97857.09;;;1.24;84.20
26865;BME280;40618;51.166;10.322;2023-01-31T05:31:55;97862.19;;;1.24;85.06
26865;BME280;40618;51.166;10.322;2023-01-31T05:34:23;97859.63;;;1.24;84.77
26865;BME280;40618;51.166;10.322;2023-01-31T05:36:51;97857.09;;;1.26;84.64
26865;BME280;40618;51.166;10.322;2023-01-31T05:39:17;97868.19;;;1.26;84.69
26865;BME280;40618;51.166;10.322;2023-01-31T05:41:43;97860.53;;;1.26;84.96
26865;BME280;40618;51.166;10.322;2023-01-31T05:44:08;97860.53;;;1.26;84.41
26865;BME280;40618;51.166;10.322;2023-01-31T05:46:38;97872.44;;;1.27;84.98
26865;BME280;40618;51.166;10.322;2023-01-31T05:49:04;97869.03;;;1.27;84.02
26865;BME280;40618;51.166;10.322;2023-01-31T05:51:30;97876.69;;;1.28;84.88
26865;BME280;40618;51.166;10.322;2023-01-31T05:53:56;97878.41;;;1.29;84.77
26865;BME280;40618;51.166;10.322;2023-01-31T05:56:22;97866.50;;;1.30;84.35
26865;BME280;40618;51.166;10.322;2023-01-31T05:58:48;97876.75;;;1.31;84.71
26865;BME280;40618;51.166;10.322;2023-01-31T06:01:25;97874.22;;;1.31;84.59
26865;BME280;40618;51.166;10.322;2023-01-31T06:03:51;97875.88;;;1.31;83.64
26865;BME280;40618;51.166;10.322;2023-01-31T06:06:17;97875.88;;;1.31;84.24
26865;BME280;40618;51.166;10.322;2023-01-31T06:08:45;97885.25;;;1.32;84.35
26865;BME280;40618;51.166;10.322;2023-01-31T06:11:11;97881.00;;;1.32;84.04
26865;BME280;40618;51.166;10.322;2023-01-31T06:13:39;97858.03;;;1.32;83.67
26865;BME280;40618;51.166;10.322;2023-01-31T06:16:08;97864.00;;;1.31;84.32
26865;BME280;40618;51.166;10.322;2023-01-31T06:18:35;97862.28;;;1.30;84.42
26865;BME280;40618;51.166;10.322;2023-01-31T06:21:04;97860.56;;;1.31;83.67
26865;BME280;40618;51.166;10.322;2023-01-31T06:23:30;97858.00;;;1.29;84.45
26865;BME280;40618;51.166;10.322;2023-01-31T06:25:56;97862.28;;;1.32;84.02
26865;BME280;40618;51.166;10.322;2023-01-31T06:28:22;97863.09;;;1.29;83.49
26865;BME280;40618;51.166;10.322;2023-01-31T06:30:48;97863.94;;;1.28;84.10
26865;BME280;40618;51.166;10.322;2023-01-31T06:33:14;97869.91;;;1.27;84.08
26865;BME280;40618;51.166;10.322;2023-01-31T06:35:40;97871.56;;;1.27;83.68
26865;BME280;40618;51.166;10.322;2023-01-31T06:38:07;97876.69;;;1.27;83.76
26865;BME280;40618;51.166;10.322;2023-01-31T06:40:33;97881.75;;;1.25;84.29
26865;BME280;40618;51.166;10.322;2023-01-31T06:43:00;97880.06;;;1.26;83.70
26865;BME280;40618;51.166;10.322;2023-01-31T06:45:27;97877.50;;;1.24;83.92
26865;BME280;40618;51.166;10.322;2023-01-31T06:47:52;97875.81;;;1.23;83.63
26865;BME280;40618;51.166;10.322;2023-01-31T06:50:18;97866.41;;;1.21;84.06
26865;BME280;40618;51.166;10.322;2023-01-31T06:52:44;97868.16;;;1.23;83.45
26865;BME280;40618;51.166;10.322;2023-01-31T06:55:10;97875.81;;;1.23;83.93
26865;BME280;40618;51.166;10.322;2023-01-31T06:57:36;97887.69;;;1.23;84.40
26865;BME280;40618;51.166;10.322;2023-01-31T07:00:10;97880.03;;;1.23;84.34
26865;BME280;40618;51.166;10.322;2023-01-31T07:02:36;97877.50;;;1.24;83.94
26865;BME280;40618;51.166;10.322;2023-01-31T07:05:02;97880.91;;;1.25;83.71
26865;BME280;40618;51.166;10.322;2023-01-31T07:07:28;97876.66;;;1.25;83.53
26865;BME280;40618;51.166;10.322;2023-01-31T07:09:53;97865.59;;;1.23;84.09
26865;BME280;40618;51.166;10.322;2023-01-31T07:12:20;97874.94;;;1.24;84.25
26865;BME280;40618;51.166;10.322;2023-01-31T07:14:45;97869.00;;;1.24;84.13
26865;BME280;40618;51.166;10.322;2023-01-31T07:17:11;97864.72;;;1.24;83.67
26865;BME280;40618;51.166;10.322;2023-01-31T07:19:36;97863.03;;;1.23;83.85
26865;BME280;40618;51.166;10.322;2023-01-31T07:22:02;97869.00;;;1.24;83.82
26865;BME280;40618;51.166;10.322;2023-01-31T07:24:27;97855.38;;;1.23;83.89
26865;BME280;40618;51.166;10.322;2023-01-31T07:26:53;97862.16;;;1.23;83.57
26865;BME280;40618;51.166;10.322;2023-01-31T07:29:19;97849.41;;;1.21;84.42
26865;BME280;40618;51.166;10.322;2023-01-31T07:31:44;97863.88;;;1.22;83.94
26865;BME280;40618;51.166;10.322;2023-01-31T07:34:10;97860.50;;;1.23;83.85
26865;BME280;40618;51.166;10.322;2023-01-31T07:36:35;97852.84;;;1.23;83.57
26865;BME280;40618;51.166;10.322;2023-01-31T07:39:01;97849.41;;;1.21;84.07
26865;BME280;40618;51.166;10.322;2023-01-31T07:41:27;97840.03;;;1.20;83.95
26865;BME280;40618;51.166;10.322;2023-01-31T07:43:53;97835.78;;;1.19;84.22
26865;BME280;40618;51.166;10.322;2023-01-31T07:46:18;97835.78;;;1.19;84.08
26865;BME280;40618;51.166;10.322;2023-01-31T07:48:44;97840.03;;;1.20;84.50
26865;BME280;40618;51.166;10.322;2023-01-31T07:51:10;97844.28;;;1.21;84.02
26865;BME280;40618;51.166;10.322;2023-01-31T07:53:38;97837.53;;;1.23;83.62
26865;BME280;40618;51.166;10.322;2023-01-31T07:56:13;97857.09;;;1.24;84.26
26865;BME280;40618;51.166;10.322;2023-01-31T07:58:41;97852.84;;;1.23;83.67
26865;BME280;40618;51.166;10.322;2023-01-31T08:01:13;97845.13;;;1.22;84.07
26865;BME280;40618;51.166;10.322;2023-01-31T08:03:58;97843.44;;;1.21;84.46
26865;BME280;40618;51.166;10.322;2023-01-31T08:06:26;97847.66;;;1.20;84.23
26865;BME280;40618;51.166;10.322;2023-01-31T08:08:54;97840.03;;;1.20;84.12
26865;BME280;40618;51.166;10.322;2023-01-31T08:11:21;97828.16;;;1.21;83.77
26865;BME280;40618;51.166;10.322;2023-01-31T08:13:47;97823.03;;;1.21;84.13
26865;BME280;40618;51.166;10.322;2023-01-31T08:16:13;97823.88;;;1.21;83.62
26865;BME280;40618;51.166;10.322;2023-01-31T08:18:39;97824.72;;;1.22;84.10
26865;BME280;40618;51.166;10.322;2023-01-31T08:21:06;97818.78;;;1.23;84.32
26865;BME280;40618;51.166;10.322;2023-01-31T08:23:33;97824.72;;;1.22;83.60
26865;BME280;40618;51.166;10.322;2023-01-31T08:26:11;97814.53;;;1.22;84.53
26865;BME280;40618;51.166;10.322;2023-01-31T08:28:41;97806.91;;;1.23;84.22
26865;BME280;40618;51.166;10.322;2023-01-31T08:31:16;97807.75;;;1.24;83.92
26865;BME280;40618;51.166;10.322;2023-01-31T08:33:44;97798.41;;;1.24;84.60
26865;BME280;40618;51.166;10.322;2023-01-31T08:36:16;97801.84;;;1.25;84.39
26865;BME280;40618;51.166;10.322;2023-01-31T08:38:42;97797.56;;;1.25;84.17
26865;BME280;40618;51.166;10.322;2023-01-31T08:41:09;97801.84;;;1.26;84.74
26865;BME280;40618;51.166;10.322;2023-01-31T08:43:35;97792.50;;;1.27;84.17
26865;BME280;40618;51.166;10.322;2023-01-31T08:46:05;97781.44;;;1.28;83.95
26865;BME280;40618;51.166;10.322;2023-01-31T08:48:35;97784.03;;;1.29;84.68
26865;BME280;40618;51.166;10.322;2023-01-31T08:51:03;97781.50;;;1.32;83.85
26865;BME280;40618;51.166;10.322;2023-01-31T08:53:31;97779.00;;;1.34;84.21
26865;BME280;40618;51.166;10.322;2023-01-31T08:55:58;97784.94;;;1.36;84.15
26865;BME280;40618;51.166;10.322;2023-01-31T08:58:25;97803.69;;;1.38;84.60
26865;BME280;40618;51.166;10.322;2023-01-31T09:00:51;97787.50;;;1.36;84.06
26865;BME280;40618;51.166;10.322;2023-01-31T09:03:16;97795.16;;;1.36;83.90
26865;BME280;40618;51.166;10.322;2023-01-31T09:05:42;97785.78;;;1.37;84.71
26865;BME280;40618;51.166;10.322;2023-01-31T09:08:09;97777.31;;;1.39;84.58
26865;BME280;40618;51.166;10.322;2023-01-31T09:10:35;97771.41;;;1.43;84.38
26865;BME280;40618;51.166;10.322;2023-01-31T09:13:01;97784.19;;;1.45;84.01
26865;BME280;40618;51.166;10.322;2023-01-31T09:15:27;97774.03;;;1.48;84.06
26865;BME280;40618;51.166;10.322;2023-01-31T09:17:53;97775.72;;;1.49;84.82
26865;BME280;40618;51.166;10.322;2023-01-31T09:20:18;97773.22;;;1.52;84.63
26865;BME280;40618;51.166;10.322;2023-01-31T09:22:44;97768.97;;;1.52;84.79
26865;BME280;40618;51.166;10.322;2023-01-31T09:25:10;97759.66;;;1.55;84.78
26865;BME280;40618;51.166;10.322;2023-01-31T09:27:37;97774.13;;;1.57;84.62
26865;BME280;40618;51.166;10.322;2023-01-31T09:30:07;97773.28;;;1.58;84.86
26865;BME280;40618;51.166;10.322;2023-01-31T09:32:34;97752.88;;;1.58;84.62
26865;BME280;40618;51.166;10.322;2023-01-31T09:35:01;97750.34;;;1.61;84.26
26865;BME280;40618;51.166;10.322;2023-01-31T09:37:29;97754.59;;;1.62;84.46
26865;BME280;40618;51.166;10.322;2023-01-31T09:39:55;97752.06;;;1.64;84.28
26865;BME280;40618;51.166;10.322;2023-01-31T09:42:26;97751.22;;;1.65;84.31
26865;BME280;40618;51.166;10.322;2023-01-31T09:47:41;97735.06;;;1.64;84.48
26865;BME280;40618;51.166;10.322;2023-01-31T09:53:00;97740.22;;;1.69;84.94
26865;BME280;40618;51.166;10.322;2023-01-31T09:55:42;97744.47;;;1.68;84.36
26865;BME280;40618;51.166;10.322;2023-01-31T09:58:33;97741.09;;;1.69;84.33
26865;BME280;40618;51.166;10.322;2023-01-31T10:04:08;97704.53;;;1.74;85.05
26865;BME280;40618;51.166;10.322;2023-01-31T10:06:48;97718.16;;;1.79;84.41
26865;BME280;40618;51.166;10.322;2023-01-31T10:09:37;97702.00;;;1.80;84.47
26865;BME280;40618;51.166;10.322;2023-01-31T10:12:21;97702.00;;;1.80;85.10
26865;BME280;40618;51.166;10.322;2023-01-31T10:15:21;97698.63;;;1.81;85.06
26865;BME280;40618;51.166;10.322;2023-01-31T10:17:52;97705.47;;;1.82;84.57
26865;BME280;40618;51.166;10.322;2023-01-31T10:20:37;97697.78;;;1.82;84.88
26865;BME280;40618;51.166;10.322;2023-01-31T10:23:15;97688.44;;;1.84;85.00
26865;BME280;40618;51.166;10.322;2023-01-31T10:25:56;97687.59;;;1.83;84.79
26865;BME280;40618;51.166;10.322;2023-01-31T10:28:46;97676.50;;;1.83;84.67
26865;BME280;40618;51.166;10.322;2023-01-31T10:34:21;97691.00;;;1.84;85.02
26865;BME280;40618;51.166;10.322;2023-01-31T10:39:48;97674.00;;;1.88;84.98
26865;BME280;40618;51.166;10.322;2023-01-31T10:42:33;97679.13;;;1.91;84.46
26865;BME280;40618;51.166;10.322;2023-01-31T10:45:13;97669.75;;;1.93;85.14
26865;BME280;40618;51.166;10.322;2023-01-31T10:47:49;97664.69;;;1.96;84.26
26865;BME280;40618;51.166;10.322;2023-01-31T10:50:18;97651.94;;;1.97;84.30
26865;BME280;40618;51.166;10.322;2023-01-31T10:58:35;97646.84;;;2.02;84.83
26865;BME280;40618;51.166;10.322;2023-01-31T11:01:05;97649.41;;;2.02;84.04
26865;BME280;40618;51.166;10.322;2023-01-31T11:03:35;97654.50;;;2.00;84.62
26865;BME280;40618;51.166;10.322;2023-01-31T11:06:02;97634.06;;;1.97;84.10
26865;BME280;40618;51.166;10.322;2023-01-31T11:08:44;97645.94;;;1.95;84.68
26865;BME280;40618;51.166;10.322;2023-01-31T11:11:27;97671.47;;;1.94;84.24
26865;BME280;40618;51.166;10.322;2023-01-31T11:16:33;97654.41;;;1.88;84.51
26865;BME280;40618;51.166;10.322;2023-01-31T11:21:49;97622.88;;;1.84;84.38
26865;BME280;40618;51.166;10.322;2023-01-31T11:24:22;97626.31;;;1.83;84.05
26865;BME280;40618;51.166;10.322;2023-01-31T11:26:59;97633.97;;;1.82;84.68
26865;BME280;40618;51.166;10.322;2023-01-31T11:29:40;97627.13;;;1.79;84.13
26865;BME280;40618;51.166;10.322;2023-01-31T11:32:18;97619.41;;;1.75;84.44
26865;BME280;40618;51.166;10.322;2023-01-31T11:37:22;97622.84;;;1.74;84.87
26865;BME280;40618;51.166;10.322;2023-01-31T11:39:55;97597.31;;;1.74;84.20
26865;BME280;40618;51.166;10.322;2023-01-31T11:42:23;97599.84;;;1.74;84.58
26865;BME280;40618;51.166;10.322;2023-01-31T11:45:16;97587.94;;;1.73;85.07
26865;BME280;40618;51.166;10.322;2023-01-31T11:47:52;97592.16;;;1.72;85.01
26865;BME280;40618;51.166;10.322;2023-01-31T11:50:23;97600.69;;;1.73;85.07
26865;BME280;40618;51.166;10.322;2023-01-31T11:53:02;97590.47;;;1.73;84.53
26865;BME280;40618;51.166;10.322;2023-01-31T11:55:38;97580.25;;;1.71;85.24
26865;BME280;40618;51.166;10.322;2023-01-31T12:00:51;97563.22;;;1.68;84.87
26865;BME280;40618;51.166;10.322;2023-01-31T12:03:23;97567.47;;;1.68;85.18
26865;BME280;40618;51.166;10.322;2023-01-31T12:05:58;97542.81;;;1.67;85.14
26865;BME280;40618;51.166;10.322;2023-01-31T12:13:47;97518.97;;;1.68;85.33
26865;BME280;40618;51.166;10.322;2023-01-31T12:16:25;97519.81;;;1.65;84.98
26865;BME280;40618;51.166;10.322;2023-01-31T12:22:12;97523.16;;;1.60;84.86
26865;BME280;40618;51.166;10.322;2023-01-31T12:27:57;97507.84;;;1.61;85.11
26865;BME280;40618;51.166;10.322;2023-01-31T12:37:00;97486.63;;;1.67;85.21
26865;BME280;40618;51.166;10.322;2023-01-31T12:48:26;97467.06;;;1.71;84.73
26865;BME280;40618;51.166;10.322;2023-01-31T12:51:22;97473.03;;;1.69;84.77
26865;BME280;40618;51.166;10.322;2023-01-31T12:56:58;97475.59;;;1.71;84.66
26865;BME280;40618;51.166;10.322;2023-01-31T12:59:41;97475.59;;;1.73;85.45
26865;BME280;40618;51.166;10.322;2023-01-31T13:02:42;97473.06;;;1.74;85.70
26865;BME280;40618;51.166;10.322;2023-01-31T13:05:55;97477.31;;;1.77;85.58
26865;BME280;40618;51.166;10.322;2023-01-31T13:08:27;97484.13;;;1.76;84.93
26865;BME280;40618;51.166;10.322;2023-01-31T13:11:12;97475.63;;;1.76;85.60
26865;BME280;40618;51.166;10.322;2023-01-31T13:16:23;97476.44;;;1.73;84.85
26865;BME280;40618;51.166;10.322;2023-01-31T13:18:58;97452.63;;;1.71;85.12
26865;BME280;40618;51.166;10.322;2023-01-31T13:21:33;97461.94;;;1.66;85.12
26865;BME280;40618;51.166;10.322;2023-01-31T13:24:11;97444.03;;;1.57;85.05
26865;BME280;40618;51.166;10.322;2023-01-31T13:26:50;97443.97;;;1.49;85.07
26865;BME280;40618;51.166;10.322;2023-01-31T13:30:01;97453.31;;;1.44;85.09
26865;BME280;40618;51.166;10.322;2023-01-31T13:32:36;97445.66;;;1.42;85.41
26865;BME280;40618;51.166;10.322;2023-01-31T13:35:30;97451.59;;;1.43;85.18
26865;BME280;40618;51.166;10.322;2023-01-31T13:38:05;97462.66;;;1.43;85.74
26865;BME280;40618;51.166;10.322;2023-01-31T13:40:47;97447.34;;;1.45;86.17
26865;BME280;40618;51.166;10.322;2023-01-31T13:43:17;97451.63;;;1.46;85.59
26865;BME280;40618;51.166;10.322;2023-01-31T13:45:52;97440.59;;;1.48;86.02
26865;BME280;40618;51.166;10.322;2023-01-31T13:51:17;97428.72;;;1.52;85.62
26865;BME280;40618;51.166;10.322;2023-01-31T13:56:36;97433.81;;;1.55;86.48
26865;BME280;40618;51.166;10.322;2023-01-31T13:59:09;97441.47;;;1.55;86.17
26865;BME280;40618;51.166;10.322;2023-01-31T14:01:43;97436.38;;;1.57;85.83
26865;BME280;40618;51.166;10.322;2023-01-31T14:11:55;97451.69;;;1.60;86.40
26865;BME280;40618;51.166;10.322;2023-01-31T14:17:14;97445.75;;;1.64;86.23
26865;BME280;40618;51.166;10.322;2023-01-31T14:20:01;97457.69;;;1.65;85.92
26865;BME280;40618;51.166;10.322;2023-01-31T14:29:15;97451.69;;;1.55;86.63
26865;BME280;40618;51.166;10.322;2023-01-31T14:31:45;97458.47;;;1.53;86.34
26865;BME280;40618;51.166;10.322;2023-01-31T14:34:25;97451.66;;;1.52;86.73
26865;BME280;40618;51.166;10.322;2023-01-31T14:42:49;97458.50;;;1.55;86.86
26865;BME280;40618;51.166;10.322;2023-01-31T14:45:47;97455.06;;;1.54;86.80
26865;BME280;40618;51.166;10.322;2023-01-31T15:11:00;97458.50;;;1.55;87.02
26865;BME280;40618;51.166;10.322;2023-01-31T15:19:07;97461.00;;;1.53;86.62
26865;BME280;40618;51.166;10.322;2023-01-31T15:21:53;97449.13;;;1.52;86.57
26865;BME280;40618;51.166;10.322;2023-01-31T15:24:34;97455.91;;;1.48;86.88
26865;BME280;40618;51.166;10.322;2023-01-31T15:27:06;97462.72;;;1.48;86.42
26865;BME280;40618;51.166;10.322;2023-01-31T15:30:06;97453.34;;;1.47;87.29
26865;BME280;40618;51.166;10.322;2023-01-31T15:35:30;97452.50;;;1.46;86.83
26865;BME280;40618;51.166;10.322;2023-01-31T15:43:43;97461.81;;;1.44;87.32
26865;BME280;40618;51.166;10.322;2023-01-31T15:46:18;97464.38;;;1.44;86.73
26865;BME280;40618;51.166;10.322;2023-01-31T15:48:54;97457.59;;;1.46;87.55
26865;BME280;40618;51.166;10.322;2023-01-31T15:51:20;97461.81;;;1.46;87.53
26865;BME280;40618;51.166;10.322;2023-01-31T15:53:47;97473.75;;;1.47;86.58
26865;BME280;40618;51.166;10.322;2023-01-31T15:56:21;97471.19;;;1.48;87.15
26865;BME280;40618;51.166;10.322;2023-01-31T15:58:52;97472.09;;;1.50;86.76
26865;BME280;40618;51.166;10.322;2023-01-31T16:01:19;97476.31;;;1.53;87.08
26865;BME280;40618;51.166;10.322;2023-01-31T16:03:53;97469.53;;;1.55;87.63
26865;BME280;40618;51.166;10.322;2023-01-31T16:06:24;97478.03;;;1.56;87.29
26865;BME280;40618;51.166;10.322;2023-01-31T16:08:55;97471.25;;;1.55;87.18